createdAt,value
2019-04-10T00:04:04.946Z,16.73
2019-04-10T00:09:13.291Z,17.27
2019-04-10T00:14:22.034Z,16.82
2019-04-10T00:19:30.841Z,17.19
2019-04-10T00:24:39.883Z,17.20
2019-04-10T00:29:47.148Z,17.10
2019-04-10T00:34:56.106Z,15.50
2019-04-10T00:40:03.681Z,17.65
2019-04-10T00:45:13.223Z,17.70
2019-04-10T00:50:20.406Z,16.45
2019-04-10T00:55:30.115Z,17.39
2019-04-10T01:00:37.101Z,17.60
2019-04-10T01:05:45.700Z,17.75
2019-04-10T01:10:54.686Z,17.19
2019-04-10T01:16:02.788Z,17.62
2019-04-10T01:21:11.148Z,17.05
2019-04-10T01:26:19.117Z,17.46
2019-04-10T01:31:26.881Z,17.79
2019-04-10T01:36:35.357Z,16.03
2019-04-10T01:41:43.926Z,15.73
2019-04-10T01:46:52.940Z,15.99
2019-04-10T01:52:00.696Z,15.57
2019-04-10T01:57:10.309Z,15.67
2019-04-10T02:02:17.774Z,16.99
2019-04-10T02:07:26.537Z,15.53
2019-04-10T02:12:35.149Z,14.97
2019-04-10T02:17:44.507Z,15.50
2019-04-10T02:22:52.123Z,15.28
2019-04-10T02:28:00.750Z,14.99
2019-04-10T02:33:10.703Z,15.37
2019-04-10T02:38:27.328Z,15.15
2019-04-10T02:43:25.527Z,14.91
2019-04-10T02:48:34.079Z,14.48
2019-04-10T02:53:43.810Z,14.35
2019-04-10T02:58:51.566Z,15.18
2019-04-10T03:03:59.373Z,14.45
2019-04-10T03:09:28.083Z,13.95
2019-04-10T03:14:16.887Z,14.37
2019-04-10T03:19:24.003Z,12.87
2019-04-10T03:24:32.704Z,13.55
2019-04-10T03:29:54.261Z,14.82
2019-04-10T03:34:43.364Z,14.52
2019-04-10T03:39:51.048Z,14.49
2019-04-10T03:44:59.498Z,13.51
2019-04-10T03:50:08.754Z,13.24
2019-04-10T03:55:16.758Z,13.45
2019-04-10T04:00:24.165Z,12.67
2019-04-10T04:05:32.881Z,11.97
2019-04-10T04:10:42.571Z,12.28
2019-04-10T04:15:50.582Z,13.75
2019-04-10T04:20:59.278Z,12.37
2019-04-10T04:26:07.232Z,13.01
2019-04-10T04:31:14.545Z,14.45
2019-04-10T04:36:23.128Z,12.71
2019-04-10T04:41:31.726Z,13.69
2019-04-10T04:46:40.743Z,13.94
2019-04-10T04:51:48.412Z,13.45
2019-04-10T04:56:58.034Z,15.35
2019-04-10T05:02:05.881Z,13.46
2019-04-10T05:07:26.286Z,15.27
2019-04-10T05:12:16.361Z,15.13
2019-04-10T05:17:24.114Z,16.04
2019-04-10T05:22:31.781Z,16.94
2019-04-10T05:27:39.314Z,14.62
2019-04-10T05:32:47.991Z,14.75
2019-04-10T05:37:56.474Z,14.79
2019-04-10T05:43:05.886Z,15.88
2019-04-10T05:48:13.182Z,16.24
2019-04-10T05:53:22.520Z,17.86
2019-04-10T05:58:29.702Z,15.33
2019-04-10T06:03:38.728Z,18.17
2019-04-10T06:08:47.049Z,18.33
2019-04-10T06:13:54.385Z,18.03
2019-04-10T06:19:03.926Z,16.77
2019-04-10T06:24:11.958Z,16.11
2019-04-10T06:29:19.250Z,16.70
2019-04-10T06:34:27.651Z,17.91
2019-04-10T06:39:37.175Z,18.01
2019-04-10T06:44:44.574Z,15.89
2019-04-10T06:49:52.751Z,15.98
2019-04-10T06:55:01.393Z,16.92
2019-04-10T07:00:13.712Z,15.51
2019-04-10T07:05:17.911Z,15.70
2019-04-10T07:10:33.613Z,15.99
2019-04-10T07:15:35.709Z,15.82
2019-04-10T07:20:42.780Z,15.39
2019-04-10T07:25:51.978Z,14.57
2019-04-10T07:31:04.733Z,16.60
2019-04-10T07:36:09.600Z,14.78
2019-04-10T07:41:20.915Z,16.73
2019-04-10T07:46:24.025Z,16.91
2019-04-10T07:51:31.951Z,18.12
2019-04-10T07:56:40.399Z,14.32
2019-04-10T08:01:49.511Z,16.61
2019-04-10T08:06:57.169Z,13.26
2019-04-10T08:12:05.710Z,16.33
2019-04-10T08:17:14.345Z,14.40
2019-04-10T08:22:22.746Z,13.67
2019-04-10T08:27:32.009Z,16.39
2019-04-10T08:32:51.626Z,15.96
2019-04-10T08:37:48.589Z,15.10
2019-04-10T08:42:55.750Z,15.36
2019-04-10T08:48:03.987Z,16.16
2019-04-10T08:53:13.645Z,17.20
2019-04-10T08:58:20.884Z,15.72
2019-04-10T09:03:29.110Z,13.05
2019-04-10T09:08:53.061Z,15.13
2019-04-10T09:13:53.325Z,14.95
2019-04-10T09:18:41.851Z,16.22
2019-04-10T09:23:53.422Z,15.37
2019-04-10T09:28:59.107Z,16.46
2019-04-10T09:34:13.706Z,14.30
2019-04-10T09:39:11.602Z,15.30
2019-04-10T09:44:19.132Z,16.63
2019-04-10T09:49:35.660Z,16.03
2019-04-10T09:54:35.683Z,15.19
2019-04-10T09:59:45.616Z,13.89
2019-04-10T10:04:53.491Z,14.46
2019-04-10T10:10:01.227Z,13.61
2019-04-10T10:15:09.488Z,16.47
2019-04-10T10:20:16.591Z,15.83
2019-04-10T10:25:25.114Z,15.75
2019-04-10T10:30:33.806Z,15.93
2019-04-10T10:35:43.187Z,15.57
2019-04-10T10:40:50.817Z,19.39
2019-04-10T10:45:58.912Z,16.15
2019-04-10T10:51:06.854Z,14.82
2019-04-10T10:56:15.361Z,13.45
2019-04-10T11:01:24.158Z,15.56
2019-04-10T11:06:33.188Z,16.29
2019-04-10T11:11:40.967Z,16.33
2019-04-10T11:16:49.502Z,13.89
2019-04-10T11:21:58.780Z,13.68
2019-04-10T11:27:06.623Z,15.98
2019-04-10T11:32:14.652Z,15.04
2019-04-10T11:37:31.854Z,13.83
2019-04-10T11:42:32.220Z,14.51
2019-04-10T11:47:39.084Z,14.98
2019-04-10T11:57:59.440Z,13.44
2019-04-10T12:03:04.797Z,14.15
2019-04-10T12:08:27.889Z,12.45
2019-04-10T12:13:20.048Z,13.26
2019-04-10T12:18:28.775Z,12.35
2019-04-10T12:23:37.123Z,12.08
2019-04-10T12:28:46.474Z,14.09
2019-04-10T12:33:54.813Z,13.69
2019-04-10T12:39:02.080Z,16.62
2019-04-10T12:44:11.660Z,15.13
2019-04-10T12:49:19.220Z,17.84
2019-04-10T12:54:27.982Z,12.95
2019-04-10T12:59:35.323Z,13.36
2019-04-10T13:04:44.834Z,14.09
2019-04-10T13:09:51.626Z,13.38
2019-04-10T13:15:01.368Z,15.60
2019-04-10T13:20:09.977Z,14.95
2019-04-10T13:25:18.648Z,14.48
2019-04-10T13:30:27.300Z,16.68
2019-04-10T13:35:36.090Z,16.24
2019-04-10T13:40:45.874Z,16.01
2019-04-10T13:45:54.163Z,15.19
2019-04-10T13:51:03.264Z,15.83
2019-04-10T13:56:10.482Z,12.35
2019-04-10T14:01:19.641Z,16.76
2019-04-10T14:06:27.502Z,15.85
2019-04-10T14:11:49.187Z,16.22
2019-04-10T14:16:36.984Z,16.82
2019-04-10T14:21:45.024Z,17.32
2019-04-10T14:26:53.841Z,15.58
2019-04-10T14:32:00.788Z,15.08
2019-04-10T14:37:09.362Z,16.46
2019-04-10T14:42:16.687Z,16.20
2019-04-10T14:47:25.508Z,15.01
2019-04-10T14:52:34.849Z,16.16
2019-04-10T14:57:41.961Z,16.84
2019-04-10T15:02:50.706Z,15.97
2019-04-10T15:07:59.506Z,13.92
2019-04-10T15:13:10.253Z,15.08
2019-04-10T15:18:15.509Z,15.98
2019-04-10T15:23:24.073Z,16.66
2019-04-10T15:28:33.817Z,15.22
2019-04-10T15:33:40.718Z,15.92
2019-04-10T15:38:50.469Z,17.31
2019-04-10T15:43:57.546Z,15.35
2019-04-10T15:49:07.021Z,15.68
2019-04-10T15:54:14.206Z,13.11
2019-04-10T15:59:23.868Z,14.32
2019-04-10T16:04:31.645Z,14.44
2019-04-10T16:09:44.814Z,13.55
2019-04-10T16:14:47.036Z,12.50
2019-04-10T16:19:56.351Z,13.52
2019-04-10T16:25:03.562Z,11.87
2019-04-10T16:30:12.304Z,11.94
2019-04-10T16:35:21.079Z,10.62
2019-04-10T16:40:29.922Z,10.30
2019-04-10T16:45:38.764Z,11.98
2019-04-10T16:50:47.788Z,12.58
2019-04-10T16:55:55.485Z,11.49
2019-04-10T17:01:04.346Z,12.07
2019-04-10T17:06:12.554Z,10.84
2019-04-10T17:11:21.165Z,11.24
2019-04-10T17:16:29.778Z,20.91
2019-04-10T17:21:38.482Z,11.07
2019-04-10T17:26:46.987Z,12.67
2019-04-10T17:31:55.488Z,10.84
2019-04-10T17:37:04.018Z,12.34
2019-04-10T17:42:12.611Z,11.37
2019-04-10T17:47:21.243Z,10.37
2019-04-10T17:52:32.585Z,11.61
2019-04-10T17:57:40.209Z,11.34
2019-04-10T18:02:46.744Z,11.09
2019-04-10T18:07:55.292Z,10.63
2019-04-10T18:13:05.007Z,13.11
2019-04-10T18:18:12.007Z,12.83
2019-04-10T18:23:20.543Z,10.41
2019-04-10T18:28:31.008Z,11.19
2019-04-10T18:33:38.365Z,9.17
2019-04-10T18:38:45.943Z,10.48
2019-04-10T18:43:53.462Z,10.32
2019-04-10T18:49:03.087Z,9.62
2019-04-10T18:54:12.242Z,9.49
2019-04-10T18:59:18.475Z,9.36
2019-04-10T19:04:27.531Z,10.39
2019-04-10T19:09:36.798Z,10.13
2019-04-10T19:14:44.633Z,9.90
2019-04-10T19:19:52.501Z,10.76
2019-04-10T19:25:01.060Z,8.99
2019-04-10T19:30:09.612Z,10.30
2019-04-10T19:35:19.874Z,9.58
2019-04-10T19:40:27.718Z,9.17
2019-04-10T19:45:34.730Z,8.50
2019-04-10T19:50:43.750Z,9.49
2019-04-10T19:55:52.043Z,9.32
2019-04-10T20:01:01.076Z,9.40
2019-04-10T20:06:09.507Z,10.16
2019-04-10T20:11:20.147Z,9.14
2019-04-10T20:16:26.982Z,9.66
2019-04-10T20:21:34.541Z,10.16
2019-04-10T20:26:43.460Z,8.85
2019-04-10T20:31:51.764Z,8.31
2019-04-10T20:37:03.609Z,10.43
2019-04-10T20:42:08.462Z,11.53
2019-04-10T20:47:17.254Z,42.19
2019-04-10T20:52:26.300Z,19.33
2019-04-10T20:57:35.264Z,9.66
2019-04-10T21:02:42.622Z,10.33
2019-04-10T21:07:50.343Z,9.07
2019-04-10T21:12:59.678Z,8.57
2019-04-10T21:18:07.067Z,9.57
2019-04-10T21:23:15.699Z,10.09
2019-04-10T21:28:24.476Z,8.64
2019-04-10T21:33:33.282Z,9.18
2019-04-10T21:38:42.732Z,7.87
2019-04-10T21:43:51.128Z,7.41
2019-04-10T21:48:57.940Z,8.93
2019-04-10T21:54:06.463Z,9.19
2019-04-10T21:59:16.425Z,9.41
2019-04-10T22:04:23.237Z,7.84
2019-04-10T22:09:31.855Z,9.29
2019-04-10T22:14:40.386Z,8.42
2019-04-10T22:19:48.924Z,8.00
2019-04-10T22:24:57.537Z,8.06
2019-04-10T22:30:05.167Z,8.71
2019-04-10T22:35:13.734Z,6.60
2019-04-10T22:40:23.510Z,7.86
2019-04-10T22:45:30.988Z,7.46
2019-04-10T22:50:38.650Z,8.25
2019-04-10T22:55:48.461Z,8.32
2019-04-10T23:00:55.894Z,8.16
2019-04-10T23:06:03.495Z,7.09
2019-04-10T23:11:13.108Z,7.93
2019-04-10T23:16:20.525Z,8.53
2019-04-10T23:21:30.298Z,7.47
2019-04-10T23:26:37.525Z,7.04
2019-04-10T23:31:45.959Z,7.29
2019-04-10T23:36:54.515Z,7.96
2019-04-10T23:42:04.590Z,8.64
2019-04-10T23:47:11.758Z,6.62
2019-04-10T23:52:20.030Z,6.57
2019-04-10T23:57:27.536Z,7.19
